Time;durP1;ratioP1;P1;durP2;ratioP2;P2;SDS_P1;SDS_P2;PMS_P1;PMS_P2;Temp;Humidity;BMP_temperature;BMP_pressure;BME280_temperature;BME280_humidity;BME280_pressure;Samples;Min_cycle;Max_cycle;Signal;HPM_P1;HPM_P2
2024/01/13 00:01:06;;;;;;;1.70;1.60;;;;;;;-21.49;73.42;98864.03;4903861;29;20048;-78
2024/01/13 00:03:33;;;;;;;1.60;1.50;;;;;;;-21.49;73.56;98856.34;4917975;29;20075;-78
2024/01/13 00:06:01;;;;;;;1.67;1.58;;;;;;;-21.52;73.38;98858.13;4918067;29;20048;-78
2024/01/13 00:08:28;;;;;;;1.60;1.50;;;;;;;-21.54;73.60;98854.78;4918278;29;20413;-78
2024/01/13 00:11:04;;;;;;;1.60;1.50;;;;;;;-21.50;73.42;98859.75;4903796;29;20048;-78
2024/01/13 00:13:32;;;;;;;2.10;2.00;;;;;;;-21.52;73.26;98858.97;4918807;29;20056;-78
2024/01/13 00:15:59;;;;;;;1.85;1.75;;;;;;;-21.57;73.39;98865.13;4919267;29;20062;-78
2024/01/13 00:18:27;;;;;;;1.60;1.50;;;;;;;-21.57;73.35;98868.53;4919214;29;20127;-79
2024/01/13 00:21:07;;;;;;;1.70;1.60;;;;;;;-21.61;73.36;98872.09;4917941;29;20047;-78
2024/01/13 00:23:35;;;;;;;1.80;1.70;;;;;;;-21.62;73.33;98877.25;4919554;29;20048;-79
2024/01/13 00:26:03;;;;;;;1.60;1.50;;;;;;;-21.67;73.32;98879.94;4919098;29;20559;-79
2024/01/13 00:28:31;;;;;;;1.70;1.60;;;;;;;-21.68;73.32;98894.47;4919002;29;20080;-76
2024/01/13 00:31:06;;;;;;;1.70;1.60;;;;;;;-21.51;73.72;98888.84;4917792;29;20063;-78
2024/01/13 00:33:35;;;;;;;1.60;1.50;;;;;;;-21.35;73.09;98901.97;4915387;29;20049;-78
2024/01/13 00:36:05;;;;;;;1.75;1.65;;;;;;;-21.25;72.82;98905.09;4900163;29;20060;-78
2024/01/13 00:38:33;;;;;;;1.70;1.60;;;;;;;-21.35;72.11;98899.41;4899316;29;20593;-78
2024/01/13 00:41:04;;;;;;;1.58;1.48;;;;;;;-21.35;71.99;98898.56;4899750;29;20056;-78
2024/01/13 00:43:34;;;;;;;1.60;1.50;;;;;;;-21.44;72.10;98905.72;4899830;29;20056;-78
2024/01/13 00:48:54;;;;;;;1.83;1.73;;;;;;;-21.48;72.43;98903.28;4898228;29;20128;-77
2024/01/13 00:51:22;;;;;;;1.75;1.65;;;;;;;-21.46;72.52;98907.47;4898598;29;20053;-77
2024/01/13 00:53:49;;;;;;;1.58;1.48;;;;;;;-21.38;72.41;98906.41;4883015;29;20045;-77
2024/01/13 00:56:17;;;;;;;1.70;1.60;;;;;;;-21.45;72.04;98911.72;4899736;29;20060;-77
2024/01/13 00:58:44;;;;;;;1.73;1.63;;;;;;;-21.61;72.10;98919.94;4899591;29;20056;-77
2024/01/13 01:01:13;;;;;;;1.80;1.70;;;;;;;-21.81;72.62;98915.41;4899764;29;20059;-78
2024/01/13 01:03:44;;;;;;;1.95;1.85;;;;;;;-21.86;72.92;98925.78;4898163;29;20044;-77
2024/01/13 01:06:12;;;;;;;1.67;1.58;;;;;;;-21.89;73.37;98929.25;4899498;29;20052;-78
2024/01/13 01:08:40;;;;;;;1.65;1.55;;;;;;;-21.94;73.34;98925.16;4899538;29;20115;-78
2024/01/13 01:11:09;;;;;;;1.80;1.70;;;;;;;-21.93;73.63;98927.66;4899383;29;20119;-78
2024/01/13 01:13:37;;;;;;;1.70;1.60;;;;;;;-21.93;73.61;98925.09;4898283;29;20083;-78
2024/01/13 01:16:05;;;;;;;1.77;1.67;;;;;;;-22.02;73.65;98924.53;4899309;29;20421;-78
2024/01/13 01:18:33;;;;;;;1.70;1.60;;;;;;;-21.97;73.84;98920.97;4898087;29;20481;-78
2024/01/13 01:21:15;;;;;;;1.60;1.50;;;;;;;-21.87;73.83;98921.56;4897905;29;20151;-78
2024/01/13 01:23:49;;;;;;;1.60;1.50;;;;;;;-21.79;73.45;98923.88;4897851;29;20057;-77
2024/01/13 01:26:17;;;;;;;1.90;1.80;;;;;;;-21.76;73.01;98926.34;4899193;29;20063;-78
2024/01/13 01:28:44;;;;;;;1.83;1.73;;;;;;;-21.80;72.66;98927.31;4898936;29;20057;-78
2024/01/13 01:31:12;;;;;;;1.60;1.50;;;;;;;-21.91;72.48;98935.31;4898699;29;20048;-78
2024/01/13 01:33:40;;;;;;;1.60;1.50;;;;;;;-22.08;72.61;98931.50;4899091;29;20060;-77
2024/01/13 01:36:08;;;;;;;1.60;1.50;;;;;;;-22.13;73.04;98938.47;4899073;29;20125;-78
2024/01/13 01:38:37;;;;;;;1.80;1.70;;;;;;;-22.19;73.08;98943.81;4898462;29;20151;-76
2024/01/13 01:41:13;;;;;;;1.88;1.77;;;;;;;-22.22;73.32;98946.47;4897508;29;20056;-78
2024/01/13 01:43:43;;;;;;;1.90;1.80;;;;;;;-22.26;73.60;98959.38;4898548;29;20116;-78
2024/01/13 01:46:14;;;;;;;1.75;1.65;;;;;;;-22.33;74.03;98956.13;4897583;29;20140;-79
2024/01/13 01:48:42;;;;;;;1.60;1.50;;;;;;;-22.38;73.86;98953.72;4897048;29;20059;-78
2024/01/13 01:51:16;;;;;;;1.88;1.77;;;;;;;-22.34;74.20;98946.78;4881676;29;20056;-78
2024/01/13 01:53:46;;;;;;;1.65;1.55;;;;;;;-22.28;74.24;98946.59;4912572;29;20053;-78
2024/01/13 01:56:20;;;;;;;1.80;1.70;;;;;;;-22.27;74.24;98950.03;4898515;29;20048;-79
2024/01/13 01:58:50;;;;;;;1.70;1.60;;;;;;;-22.31;74.24;98952.66;4898233;29;20143;-76
2024/01/13 02:01:18;;;;;;;1.60;1.50;;;;;;;-22.36;74.23;98953.66;4898490;29;20064;-77
2024/01/13 02:03:47;;;;;;;1.80;1.70;;;;;;;-22.32;74.22;98952.72;4897346;29;20387;-77
2024/01/13 02:06:15;;;;;;;1.60;1.50;;;;;;;-22.39;74.29;98948.63;4866109;29;20488;-78
2024/01/13 02:08:43;;;;;;;1.80;1.70;;;;;;;-22.34;74.49;98947.63;4897938;29;20418;-78
2024/01/13 02:11:11;;;;;;;1.70;1.60;;;;;;;-22.27;74.09;98943.19;4881245;29;20225;-78
2024/01/13 02:13:46;;;;;;;1.70;1.60;;;;;;;-22.25;74.17;98950.81;4898271;29;20064;-78
2024/01/13 02:16:15;;;;;;;1.67;1.58;;;;;;;-22.36;73.91;98946.81;4898155;29;20056;-77
2024/01/13 02:18:45;;;;;;;1.60;1.50;;;;;;;-22.46;73.90;98950.50;4912240;29;20506;-77
2024/01/13 02:21:13;;;;;;;1.60;1.50;;;;;;;-22.61;74.09;98953.47;4898123;29;20104;-77
2024/01/13 02:23:43;;;;;;;1.70;1.60;;;;;;;-22.72;74.00;98960.59;4898095;29;20055;-77
2024/01/13 02:26:11;;;;;;;1.83;1.73;;;;;;;-22.83;74.34;98953.19;4897671;29;20557;-77
2024/01/13 02:28:39;;;;;;;1.85;1.75;;;;;;;-22.88;74.38;98972.91;4898015;29;20048;-77
2024/01/13 02:31:18;;;;;;;1.70;1.60;;;;;;;-22.94;74.70;98976.44;4877925;29;20048;-77
2024/01/13 02:33:52;;;;;;;1.77;1.67;;;;;;;-22.92;74.78;98984.94;4879317;29;20056;-77
2024/01/13 02:36:23;;;;;;;2.13;2.03;;;;;;;-23.03;74.58;98990.34;4879202;29;20064;-78
2024/01/13 02:38:52;;;;;;;1.70;1.60;;;;;;;-23.13;74.87;98990.59;4878315;29;20419;-77
2024/01/13 02:41:21;;;;;;;1.70;1.60;;;;;;;-23.17;74.97;98986.41;4878477;29;20058;-77
2024/01/13 02:43:49;;;;;;;1.80;1.70;;;;;;;-23.25;74.90;98981.50;4876627;29;20064;-78
2024/01/13 02:46:17;;;;;;;1.70;1.60;;;;;;;-23.30;74.99;98981.59;4878366;29;20061;-78
2024/01/13 02:48:50;;;;;;;1.60;1.50;;;;;;;-23.33;75.16;98984.22;4877864;29;20109;-77
2024/01/13 02:51:18;;;;;;;1.85;1.75;;;;;;;-23.43;75.49;98978.47;4861620;29;20053;-78
2024/01/13 02:53:46;;;;;;;1.88;1.77;;;;;;;-23.41;75.52;98986.94;4881857;29;20363;-77
2024/01/13 02:56:16;;;;;;;1.80;1.70;;;;;;;-23.35;75.54;98998.75;4896614;29;20148;-78
2024/01/13 02:58:43;;;;;;;2.00;1.90;;;;;;;-23.33;75.63;99001.28;4895735;29;20058;-78
2024/01/13 03:01:14;;;;;;;1.85;1.75;;;;;;;-23.33;75.57;99008.94;4895839;29;20053;-77
2024/01/13 03:03:49;;;;;;;1.70;1.60;;;;;;;-23.39;75.66;99009.88;4880276;29;20048;-76
2024/01/13 03:06:22;;;;;;;1.70;1.60;;;;;;;-23.46;75.58;99011.75;4895353;29;20119;-78
2024/01/13 03:08:53;;;;;;;1.70;1.60;;;;;;;-23.49;75.95;99013.53;4896334;29;20399;-76
2024/01/13 03:11:21;;;;;;;1.80;1.70;;;;;;;-23.23;76.06;99026.56;4896612;29;20112;-78
2024/01/13 03:13:53;;;;;;;1.83;1.73;;;;;;;-23.08;75.90;99014.34;4895617;29;20506;-77
2024/01/13 03:16:20;;;;;;;1.70;1.60;;;;;;;-23.06;75.77;99007.44;4896577;29;20522;-77
2024/01/13 03:18:47;;;;;;;1.83;1.73;;;;;;;-23.11;75.47;99001.59;4896693;29;20063;-77
2024/01/13 03:21:15;;;;;;;2.03;1.92;;;;;;;-23.15;75.63;99010.22;4896570;29;20053;-77
2024/01/13 03:23:43;;;;;;;1.70;1.60;;;;;;;-23.22;75.71;99015.47;4896291;29;20097;-77
2024/01/13 03:26:14;;;;;;;1.80;1.70;;;;;;;-23.23;75.84;99023.19;4896327;29;20068;-78
2024/01/13 03:28:47;;;;;;;1.63;1.52;;;;;;;-23.30;76.02;99029.31;4896389;29;20073;-77
2024/01/13 03:31:14;;;;;;;1.83;1.73;;;;;;;-23.36;75.88;99034.53;4896333;29;20120;-77
2024/01/13 03:33:45;;;;;;;1.70;1.60;;;;;;;-23.46;76.33;99023.69;4896349;29;20064;-77
2024/01/13 03:36:16;;;;;;;1.70;1.60;;;;;;;-23.42;76.30;99030.41;4895148;29;20048;-77
2024/01/13 03:38:44;;;;;;;1.70;1.60;;;;;;;-23.40;76.34;99026.09;4853884;29;1265117;-77
2024/01/13 03:41:13;;;;;;;1.90;1.80;;;;;;;-23.32;76.43;99031.88;4897369;29;20533;-77
2024/01/13 03:43:42;;;;;;;1.80;1.70;;;;;;;-23.33;76.47;99034.50;4895922;29;20049;-77
2024/01/13 03:46:10;;;;;;;1.80;1.70;;;;;;;-23.35;76.46;99039.63;4896077;29;20131;-77
2024/01/13 03:48:40;;;;;;;1.95;1.85;;;;;;;-23.33;76.38;99034.50;4895144;29;20060;-77
2024/01/13 03:51:09;;;;;;;1.83;1.73;;;;;;;-23.30;76.39;99029.31;4911102;29;20063;-77
2024/01/13 03:53:37;;;;;;;1.80;1.70;;;;;;;-23.36;76.51;99030.28;4896951;29;20072;-77
2024/01/13 03:56:05;;;;;;;1.80;1.70;;;;;;;-23.52;76.37;99034.03;4895984;29;20116;-78
2024/01/13 03:58:36;;;;;;;1.80;1.70;;;;;;;-23.58;76.53;99029.06;4881128;29;20152;-77
2024/01/13 04:01:03;;;;;;;1.80;1.70;;;;;;;-23.59;76.69;99042.69;4895611;29;20136;-78
2024/01/13 04:03:34;;;;;;;1.75;1.65;;;;;;;-23.64;76.69;99040.25;4897076;29;20143;-77
2024/01/13 04:06:03;;;;;;;1.88;1.77;;;;;;;-23.69;76.77;99039.50;4880245;29;20109;-78
2024/01/13 04:08:32;;;;;;;1.83;1.73;;;;;;;-23.79;76.82;99046.53;4895595;29;20059;-78
2024/01/13 04:11:05;;;;;;;1.90;1.80;;;;;;;-23.74;77.10;99052.38;4896968;29;20410;-78
2024/01/13 04:13:32;;;;;;;1.90;1.80;;;;;;;-23.60;77.20;99052.06;4898583;29;20064;-78
2024/01/13 04:15:59;;;;;;;1.90;1.80;;;;;;;-23.47;77.27;99050.94;4900550;29;20056;-79
2024/01/13 04:18:27;;;;;;;1.90;1.80;;;;;;;-23.42;77.21;99064.44;4899748;29;20049;-78
2024/01/13 04:20:55;;;;;;;1.80;1.70;;;;;;;-23.41;77.16;99062.75;4868342;29;20048;-78
2024/01/13 04:23:38;;;;;;;2.00;1.90;;;;;;;-23.43;77.06;99072.16;4900233;29;20057;-79
2024/01/13 04:26:07;;;;;;;1.88;1.77;;;;;;;-23.50;76.99;99075.69;4899148;29;20413;-78
2024/01/13 04:28:35;;;;;;;2.00;1.90;;;;;;;-23.59;77.17;99073.31;4898863;29;20124;-79
2024/01/13 04:31:02;;;;;;;1.80;1.70;;;;;;;-23.69;77.11;99070.16;4899042;29;20084;-78
2024/01/13 04:33:30;;;;;;;1.90;1.80;;;;;;;-23.80;77.20;99075.47;4899818;29;20056;-78
2024/01/13 04:35:58;;;;;;;1.90;1.80;;;;;;;-23.91;77.63;99082.50;4900359;29;20052;-78
2024/01/13 04:38:30;;;;;;;2.00;1.90;;;;;;;-23.85;77.77;99082.38;4867733;29;20526;-78
2024/01/13 04:41:00;;;;;;;1.98;1.88;;;;;;;-23.65;78.05;99095.56;4867620;29;20065;-77
2024/01/13 04:43:53;;;;;;;1.90;1.80;;;;;;;-23.66;77.86;99088.78;4899679;29;20144;-78
2024/01/13 04:46:20;;;;;;;1.90;1.80;;;;;;;-23.71;77.72;99094.84;4898958;29;20056;-78
2024/01/13 04:48:47;;;;;;;1.90;1.80;;;;;;;-23.71;78.07;99100.81;4899636;29;20084;-77
2024/01/13 04:51:16;;;;;;;1.90;1.80;;;;;;;-23.75;77.82;99094.09;4898662;29;20103;-78
2024/01/13 04:53:44;;;;;;;2.05;1.95;;;;;;;-23.60;78.05;99105.69;4899385;29;20066;-79
2024/01/13 04:56:11;;;;;;;1.90;1.80;;;;;;;-23.56;78.14;99102.22;4899567;29;20104;-76
2024/01/13 04:58:38;;;;;;;1.90;1.80;;;;;;;-23.69;78.05;99109.28;4898719;29;20068;-77
2024/01/13 05:01:14;;;;;;;1.85;1.75;;;;;;;-23.83;77.68;99103.63;4867714;29;20061;-76
2024/01/13 05:03:42;;;;;;;1.90;1.80;;;;;;;-24.03;78.05;99108.25;4899460;29;20049;-77
2024/01/13 05:06:09;;;;;;;1.90;1.80;;;;;;;-24.16;78.11;99118.66;4898140;29;20048;-75
2024/01/13 05:08:36;;;;;;;1.90;1.80;;;;;;;-24.32;78.27;99110.44;4898307;29;20058;-77
2024/01/13 05:11:04;;;;;;;1.80;1.70;;;;;;;-24.41;78.32;99113.13;4899217;29;20128;-77
2024/01/13 05:13:31;;;;;;;2.10;2.00;;;;;;;-24.46;78.74;99114.13;4898884;29;20079;-77
2024/01/13 05:15:58;;;;;;;1.90;1.80;;;;;;;-24.50;78.64;99118.44;4899161;29;20048;-77
2024/01/13 05:18:26;;;;;;;2.03;1.92;;;;;;;-24.55;78.67;99110.84;4897813;29;20498;-77
2024/01/13 05:20:54;;;;;;;2.00;1.90;;;;;;;-24.63;78.85;99120.34;4899112;29;20048;-78
2024/01/13 05:23:21;;;;;;;1.90;1.80;;;;;;;-24.66;78.96;99119.53;4899170;29;20052;-78
2024/01/13 05:25:49;;;;;;;2.35;2.15;;;;;;;-24.64;79.04;99121.19;4898105;29;20056;-78
2024/01/13 05:28:16;;;;;;;2.17;2.05;;;;;;;-24.66;79.10;99120.38;4898969;29;20056;-78
2024/01/13 05:30:43;;;;;;;2.00;1.90;;;;;;;-24.78;78.82;99118.00;4893010;29;20144;-77
2024/01/13 05:33:11;;;;;;;2.10;2.00;;;;;;;-24.86;79.02;99133.41;4891595;29;20049;-79
2024/01/13 05:35:39;;;;;;;2.00;1.90;;;;;;;-24.90;79.01;99147.06;4889744;29;20077;-81
2024/01/13 05:38:06;;;;;;;2.00;1.90;;;;;;;-25.00;79.03;99138.72;4893764;29;20052;-79
2024/01/13 05:40:34;;;;;;;1.80;1.70;;;;;;;-25.01;79.00;99142.13;4891044;29;20071;-79
2024/01/13 05:43:02;;;;;;;2.22;2.08;;;;;;;-24.97;79.21;99151.41;4890682;29;20179;-78
2024/01/13 05:45:47;;;;;;;1.85;1.75;;;;;;;-24.96;79.18;99160.75;4869191;29;20053;-79
2024/01/13 05:48:41;;;;;;;1.92;1.83;;;;;;;-24.89;79.02;99163.19;4896345;29;20125;-79
2024/01/13 05:51:10;;;;;;;2.05;1.95;;;;;;;-24.86;78.90;99161.44;4891700;29;20140;-80
2024/01/13 05:53:46;;;;;;;1.90;1.80;;;;;;;-24.96;78.74;99152.22;4887145;29;20143;-79
2024/01/13 05:56:22;;;;;;;2.25;2.05;;;;;;;-24.98;78.81;99154.81;4885827;29;20807;-78
2024/01/13 05:58:49;;;;;;;1.90;1.80;;;;;;;-25.04;78.65;99159.97;4889095;29;20053;-78
2024/01/13 06:01:16;;;;;;;2.10;2.00;;;;;;;-25.09;78.50;99148.19;4894875;29;20454;-77
2024/01/13 06:03:43;;;;;;;2.00;1.90;;;;;;;-25.08;78.74;99149.88;4893539;29;20058;-78
2024/01/13 06:06:12;;;;;;;2.10;2.00;;;;;;;-25.00;78.77;99135.31;4893572;29;20135;-79
2024/01/13 06:08:44;;;;;;;2.58;2.38;;;;;;;-25.04;78.36;99134.50;4892159;29;20067;-78
2024/01/13 06:11:11;;;;;;;2.10;2.00;;;;;;;-25.04;78.47;99131.97;4889021;29;20056;-78
2024/01/13 06:13:39;;;;;;;2.00;1.90;;;;;;;-24.98;78.31;99142.09;4878142;29;20057;-79
2024/01/13 06:16:07;;;;;;;2.00;1.90;;;;;;;-24.92;78.35;99137.75;4881531;29;20135;-78
2024/01/13 06:18:34;;;;;;;2.20;2.03;;;;;;;-24.91;78.09;99129.25;4894340;29;20139;-78
2024/01/13 06:21:02;;;;;;;2.05;1.95;;;;;;;-24.88;77.95;99132.59;4902896;29;20049;-80
2024/01/13 06:23:30;;;;;;;2.10;2.00;;;;;;;-24.83;78.13;99129.97;4884500;29;20538;-78
2024/01/13 06:26:00;;;;;;;1.92;1.83;;;;;;;-24.74;78.19;99123.03;4891764;29;20139;-78
2024/01/13 06:28:27;;;;;;;1.90;1.80;;;;;;;-24.59;78.32;99134.69;4887160;29;20045;-77
2024/01/13 06:30:59;;;;;;;2.05;1.95;;;;;;;-24.62;77.57;99144.97;4872591;29;20464;-77
2024/01/13 06:33:38;;;;;;;2.35;2.15;;;;;;;-24.71;77.55;99160.38;4887614;29;20096;-77
2024/01/13 06:36:07;;;;;;;2.00;1.90;;;;;;;-24.73;77.57;99162.97;4889266;29;20057;-78
2024/01/13 06:38:35;;;;;;;2.00;1.90;;;;;;;-24.64;77.33;99173.88;4880899;29;20059;-78
2024/01/13 06:41:02;;;;;;;1.90;1.80;;;;;;;-24.59;77.21;99180.59;4885583;29;20403;-77
2024/01/13 06:43:30;;;;;;;2.05;1.95;;;;;;;-24.38;77.26;99188.75;4884804;29;20041;-76
2024/01/13 06:45:57;;;;;;;1.90;1.80;;;;;;;-24.05;77.19;99189.09;4891054;29;20059;-76
2024/01/13 06:48:24;;;;;;;2.15;2.05;;;;;;;-23.92;76.80;99182.91;4889906;29;20402;-76
2024/01/13 06:50:52;;;;;;;2.00;1.90;;;;;;;-23.80;76.63;99182.69;4887948;29;20521;-76
2024/01/13 06:53:22;;;;;;;2.00;1.90;;;;;;;-23.78;76.41;99173.28;4883414;29;20081;-76
2024/01/13 06:55:53;;;;;;;2.08;1.98;;;;;;;-23.59;76.45;99175.47;4911974;29;20099;-77
2024/01/13 06:58:21;;;;;;;2.08;1.98;;;;;;;-23.39;76.38;99193.81;4887115;29;20052;-76
2024/01/13 07:00:48;;;;;;;2.00;1.90;;;;;;;-23.17;76.52;99184.03;4886747;29;20105;-77
2024/01/13 07:03:16;;;;;;;1.90;1.80;;;;;;;-22.91;76.07;99191.13;4892520;29;20040;-77
2024/01/13 07:05:43;;;;;;;2.00;1.90;;;;;;;-22.84;75.56;99182.44;4888808;29;20116;-76
2024/01/13 07:08:11;;;;;;;2.05;1.95;;;;;;;-22.80;75.27;99188.38;4888278;29;20049;-77
2024/01/13 07:10:38;;;;;;;1.90;1.80;;;;;;;-22.72;75.18;99191.59;4901546;29;20065;-77
2024/01/13 07:13:06;;;;;;;2.05;1.95;;;;;;;-22.64;74.81;99196.53;4892436;29;20168;-77
2024/01/13 07:15:33;;;;;;;2.10;2.00;;;;;;;-22.63;74.72;99191.41;4895836;29;20061;-77
2024/01/13 07:18:05;;;;;;;2.05;1.95;;;;;;;-22.52;74.64;99188.59;4893184;29;20075;-77
2024/01/13 07:20:32;;;;;;;1.88;1.77;;;;;;;-22.34;74.59;99193.28;4876891;29;20160;-77
2024/01/13 07:23:00;;;;;;;2.00;1.90;;;;;;;-22.07;74.07;99178.13;4878056;29;20053;-77
2024/01/13 07:25:30;;;;;;;2.10;2.00;;;;;;;-21.75;73.60;99187.56;4892512;29;20106;-77
2024/01/13 07:27:58;;;;;;;1.90;1.80;;;;;;;-21.64;72.74;99189.84;4874394;29;20052;-76
2024/01/13 07:30:25;;;;;;;2.00;1.90;;;;;;;-21.39;71.82;99199.44;4873125;29;20060;-77
2024/01/13 07:32:52;;;;;;;2.00;1.90;;;;;;;-21.36;70.74;99204.47;4874178;29;20057;-76
2024/01/13 07:35:20;;;;;;;1.92;1.83;;;;;;;-21.34;70.28;99202.69;4872926;29;20097;-76
2024/01/13 07:37:55;;;;;;;1.80;1.70;;;;;;;-21.28;69.64;99193.13;4872476;29;20053;-76
2024/01/13 07:40:23;;;;;;;2.15;2.05;;;;;;;-21.05;69.47;99220.69;4887755;29;20140;-77
2024/01/13 07:42:51;;;;;;;1.90;1.80;;;;;;;-20.90;68.99;99206.59;4874294;29;20091;-76
2024/01/13 07:45:19;;;;;;;1.88;1.77;;;;;;;-20.59;68.79;99211.69;4874929;29;20053;-76
2024/01/13 07:47:47;;;;;;;1.80;1.70;;;;;;;-20.06;68.03;99202.38;4893422;29;20059;-76
2024/01/13 07:50:14;;;;;;;2.00;1.90;;;;;;;-19.59;67.17;99205.94;4895983;29;20067;-76
2024/01/13 07:52:43;;;;;;;1.92;1.83;;;;;;;-19.17;66.33;99212.22;4895015;29;20100;-76
2024/01/13 07:55:12;;;;;;;1.80;1.70;;;;;;;-18.81;65.70;99216.06;4879921;29;20080;-77
2024/01/13 07:57:42;;;;;;;1.80;1.70;;;;;;;-18.53;64.74;99220.16;4896640;29;20044;-77
2024/01/13 08:00:12;;;;;;;1.90;1.80;;;;;;;-18.20;64.18;99222.31;4894828;29;20553;-76
2024/01/13 08:02:39;;;;;;;1.70;1.60;;;;;;;-17.99;63.73;99224.09;4891434;29;20055;-75
2024/01/13 08:05:07;;;;;;;2.00;1.90;;;;;;;-17.78;63.06;99224.91;4894285;29;20053;-76
2024/01/13 08:07:35;;;;;;;1.80;1.70;;;;;;;-17.59;62.63;99225.03;4902676;29;20481;-76
2024/01/13 08:10:03;;;;;;;1.90;1.80;;;;;;;-17.26;62.40;99224.53;4895916;29;20395;-77
2024/01/13 08:12:36;;;;;;;1.80;1.70;;;;;;;-17.06;61.24;99216.78;4894919;29;20053;-76
2024/01/13 08:16:03;;;;;;;2.08;1.98;;;;;;;-16.75;60.66;99193.91;4871689;29;20117;-76
2024/01/13 08:18:31;;;;;;;2.05;1.95;;;;;;;-16.25;59.75;99208.81;4877704;29;20060;-76
2024/01/13 08:20:59;;;;;;;2.00;1.90;;;;;;;-16.05;58.69;99226.00;4877681;29;20053;-77
2024/01/13 08:23:28;;;;;;;1.70;1.60;;;;;;;-15.75;58.10;99229.69;4877654;29;20068;-76
2024/01/13 08:25:56;;;;;;;1.75;1.65;;;;;;;-15.69;57.60;99227.75;4880183;29;20136;-76
2024/01/13 08:28:23;;;;;;;1.60;1.50;;;;;;;-15.64;57.21;99224.00;4897517;29;20060;-77
2024/01/13 08:30:51;;;;;;;1.80;1.70;;;;;;;-15.35;56.31;99227.72;4899400;29;20494;-78
2024/01/13 08:33:21;;;;;;;1.70;1.60;;;;;;;-15.25;55.90;99235.88;4897239;29;20057;-78
2024/01/13 08:35:49;;;;;;;2.13;2.03;;;;;;;-14.91;55.68;99227.25;4897812;29;20144;-78
2024/01/13 08:38:16;;;;;;;2.08;1.98;;;;;;;-14.51;55.22;99219.09;4898731;29;20557;-78
2024/01/13 08:40:45;;;;;;;2.00;1.90;;;;;;;-14.20;54.78;99219.13;4896737;29;20513;-77
2024/01/13 08:43:13;;;;;;;2.22;2.10;;;;;;;-14.09;54.13;99226.31;4897494;29;20063;-77
2024/01/13 08:45:43;;;;;;;2.00;1.90;;;;;;;-14.24;53.07;99217.63;4898441;29;20728;-77
2024/01/13 08:48:10;;;;;;;1.60;1.50;;;;;;;-14.26;53.05;99213.44;4898862;29;20064;-77
2024/01/13 08:50:38;;;;;;;1.90;1.80;;;;;;;-14.00;53.35;99212.00;4897306;29;20450;-77
2024/01/13 08:53:06;;;;;;;2.10;2.00;;;;;;;-13.77;52.17;99208.16;4897637;29;20052;-77
2024/01/13 08:55:34;;;;;;;2.00;1.90;;;;;;;-13.91;50.42;99210.66;4897738;29;20080;-78
2024/01/13 08:58:01;;;;;;;2.30;2.10;;;;;;;-14.09;50.24;99208.16;4899126;29;20112;-77
2024/01/13 09:00:29;;;;;;;2.13;2.03;;;;;;;-14.16;49.67;99206.00;4897594;29;20526;-77
2024/01/13 09:02:58;;;;;;;2.03;1.92;;;;;;;-13.97;49.70;99204.06;4877885;29;20056;-77
2024/01/13 09:05:33;;;;;;;2.50;2.30;;;;;;;-13.83;49.25;99190.31;4882422;29;20127;-77
2024/01/13 09:08:02;;;;;;;2.47;2.28;;;;;;;-13.84;48.22;99184.28;4898553;29;20052;-77
2024/01/13 09:10:36;;;;;;;2.45;2.25;;;;;;;-13.72;48.38;99184.50;4898447;29;20057;-77
2024/01/13 09:13:07;;;;;;;2.10;2.00;;;;;;;-13.48;47.43;99197.88;4878426;29;20060;-76
2024/01/13 09:15:34;;;;;;;2.03;1.92;;;;;;;-13.57;46.81;99202.66;4878369;29;20602;-77
2024/01/13 09:18:03;;;;;;;2.50;2.30;;;;;;;-13.56;46.83;99206.91;4879746;29;20483;-77
2024/01/13 09:20:31;;;;;;;1.92;1.83;;;;;;;-13.50;46.70;99207.50;4888036;29;20467;-77
2024/01/13 09:23:00;;;;;;;2.10;2.00;;;;;;;-13.19;46.74;99206.50;4898687;29;20139;-77
2024/01/13 09:25:27;;;;;;;2.67;2.47;;;;;;;-13.07;46.66;99203.19;4893805;29;20132;-77
2024/01/13 09:27:55;;;;;;;2.25;2.10;;;;;;;-12.81;46.26;99201.66;4877842;29;20045;-77
2024/01/13 09:30:23;;;;;;;2.15;2.03;;;;;;;-12.69;45.66;99193.09;4878292;29;20084;-77
2024/01/13 09:32:51;;;;;;;2.42;2.22;;;;;;;-12.40;45.44;99200.03;4875457;29;20049;-77
2024/01/13 09:35:19;;;;;;;2.35;2.15;;;;;;;-12.42;44.68;99205.34;4892751;29;20049;-78
2024/01/13 09:37:46;;;;;;;2.55;2.35;;;;;;;-12.32;44.94;99203.84;4880247;29;20048;-76
2024/01/13 09:40:17;;;;;;;2.60;2.40;;;;;;;-12.39;44.35;99197.34;4898048;29;20064;-76
2024/01/13 09:42:55;;;;;;;2.35;2.15;;;;;;;-12.34;43.94;99197.91;4896615;29;20439;-76
2024/01/13 09:45:24;;;;;;;2.38;2.17;;;;;;;-12.14;44.08;99190.63;4897666;29;20052;-76
2024/01/13 09:47:54;;;;;;;2.60;2.40;;;;;;;-11.76;44.04;99197.75;4896611;29;20104;-76
2024/01/13 09:50:21;;;;;;;2.63;2.42;;;;;;;-11.19;43.80;99190.50;4897540;29;20414;-76
2024/01/13 09:52:50;;;;;;;2.78;2.58;;;;;;;-11.03;42.64;99186.84;4893844;29;20470;-78
2024/01/13 09:55:18;;;;;;;2.38;2.17;;;;;;;-11.10;42.93;99185.59;4878672;29;20128;-76
2024/01/13 09:57:45;;;;;;;2.50;2.30;;;;;;;-11.19;42.69;99176.59;4876960;29;20056;-77
2024/01/13 10:00:13;;;;;;;2.65;2.45;;;;;;;-11.23;42.90;99180.38;4887583;29;20048;-77
2024/01/13 10:02:43;;;;;;;2.38;2.17;;;;;;;-11.31;42.45;99185.25;4889348;29;20238;-77
2024/01/13 10:05:10;;;;;;;2.35;2.15;;;;;;;-11.40;42.63;99177.09;4894772;29;20063;-77
2024/01/13 10:07:40;;;;;;;2.75;2.55;;;;;;;-11.07;43.00;99178.38;4891017;29;20112;-77
2024/01/13 10:10:08;;;;;;;2.60;2.40;;;;;;;-11.05;42.52;99176.50;4889950;29;20052;-78
2024/01/13 10:12:43;;;;;;;2.83;2.63;;;;;;;-11.19;41.75;99174.84;4890246;29;20060;-76
2024/01/13 10:15:28;;;;;;;2.60;2.40;;;;;;;-11.09;42.13;99169.00;5211435;23;20505;-77
2024/01/13 10:17:56;;;;;;;2.58;2.38;;;;;;;-10.69;42.25;99175.75;4894857;29;20047;-78
2024/01/13 10:20:24;;;;;;;2.83;2.63;;;;;;;-10.44;41.84;99166.25;4876265;29;20045;-77
2024/01/13 10:22:51;;;;;;;2.67;2.47;;;;;;;-10.18;41.18;99174.81;4216986;29;10000751;-78
2024/01/13 10:25:21;;;;;;;2.67;2.47;;;;;;;-10.08;41.16;99167.97;4892624;29;20044;-77
2024/01/13 10:27:50;;;;;;;2.65;2.45;;;;;;;-10.10;41.20;99163.81;4889616;29;20565;-77
2024/01/13 10:30:18;;;;;;;2.55;2.35;;;;;;;-10.27;39.62;99160.63;4893461;29;20120;-78
2024/01/13 10:32:46;;;;;;;2.65;2.45;;;;;;;-10.85;40.02;99166.50;4897840;29;20044;-77
2024/01/13 10:35:17;;;;;;;2.55;2.35;;;;;;;-10.84;40.35;99168.16;4893088;29;20041;-77
2024/01/13 10:37:45;;;;;;;2.53;2.33;;;;;;;-10.50;40.03;99169.28;4887127;29;20664;-77
2024/01/13 10:40:15;;;;;;;2.65;2.45;;;;;;;-10.91;40.13;99173.81;4893526;29;20139;-77
2024/01/13 10:42:48;;;;;;;2.40;2.20;;;;;;;-10.57;40.23;99171.47;4886415;29;20538;-76
2024/01/13 10:45:17;;;;;;;2.55;2.35;;;;;;;-10.43;40.41;99162.72;4874532;29;20044;-76
2024/01/13 10:47:53;;;;;;;2.72;2.53;;;;;;;-10.05;39.93;99166.94;4889800;29;20045;-77
2024/01/13 10:50:20;;;;;;;2.70;2.50;;;;;;;-9.80;39.99;99166.00;4916922;29;20052;-77
2024/01/13 10:53:03;;;;;;;2.78;2.58;;;;;;;-9.84;39.35;99156.72;4890388;29;20131;-78
2024/01/13 10:55:34;;;;;;;2.55;2.35;;;;;;;-10.11;39.73;99168.22;4861243;29;20049;-77
2024/01/13 10:58:03;;;;;;;2.30;2.10;;;;;;;-9.68;39.63;99157.25;4872496;29;20048;-77
2024/01/13 11:00:30;;;;;;;2.40;2.20;;;;;;;-9.37;39.80;99149.75;4889345;29;20045;-77
2024/01/13 11:03:01;;;;;;;2.58;2.38;;;;;;;-9.37;39.63;99152.38;4891905;29;20108;-77
2024/01/13 11:05:29;;;;;;;2.45;2.25;;;;;;;-9.28;39.67;99150.88;4891484;29;20080;-77
2024/01/13 11:07:56;;;;;;;2.42;2.22;;;;;;;-9.97;38.81;99153.34;4893522;29;20395;-78
2024/01/13 11:10:26;;;;;;;2.67;2.47;;;;;;;-10.42;38.71;99164.38;4896721;29;20088;-78
2024/01/13 11:13:02;;;;;;;2.50;2.30;;;;;;;-10.89;39.59;99158.06;4877763;29;20056;-77
2024/01/13 11:15:35;;;;;;;2.78;2.58;;;;;;;-11.08;39.70;99175.91;4889633;29;20063;-77
2024/01/13 11:18:07;;;;;;;2.47;2.28;;;;;;;-11.03;40.05;99185.06;4887606;29;20135;-77
2024/01/13 11:21:03;;;;;;;2.67;2.47;;;;;;;-10.72;39.96;99188.19;4896191;29;20056;-77
2024/01/13 11:23:58;;;;;;;2.72;2.53;;;;;;;-10.18;40.11;99182.63;4880646;29;20056;-77
2024/01/13 11:26:45;;;;;;;2.53;2.33;;;;;;;-9.86;39.69;99182.13;4894191;29;20462;-77
2024/01/13 11:29:19;;;;;;;2.58;2.38;;;;;;;-9.35;39.66;99181.84;4894790;29;20045;-77
2024/01/13 11:31:47;;;;;;;2.80;2.60;;;;;;;-9.35;39.77;99176.63;4859716;29;20588;-77
2024/01/13 11:34:17;;;;;;;2.85;2.65;;;;;;;-9.00;39.15;99178.38;4891246;29;20373;-78
2024/01/13 11:36:48;;;;;;;2.65;2.45;;;;;;;-9.07;38.98;99172.78;4890664;29;20065;-77
2024/01/13 11:39:17;;;;;;;2.38;2.17;;;;;;;-9.56;38.34;99175.63;4894918;29;20045;-77